KARR/ARR METAR and TAF weather

Enter ICAO airport designator
Station Type Date Time Source
KARR METAR 2019/10/19 06:52 UTC NOAA

KARR 190652Z AUTO 12004KT 10SM CLR 06/03 A2986 RMK AO2 SLP114 T00560028 TSNO


Station Type Date Time Source
KARR Decoded METAR 2019/10/19 06:52 UTC NOAA

CHICAGO AURORA MUNICIPAL, IL, United States (KARR) 41-46N 088-28W 215M
Oct 19, 2019 - 02:52 AM EDT / 2019.10.19 0652 UTC
Wind: from the ESE (120 degrees) at 5 MPH (4 KT):0
Visibility: 10 mile(s):0
Sky conditions: clear
Temperature: 42.1 F (5.6 C)
Dew Point: 37.0 F (2.8 C)
Relative Humidity: 82%
Pressure (altimeter): 29.86 in. Hg (1011 hPa)
ob: KARR 190652Z AUTO 12004KT 10SM CLR 06/03 A2986 RMK AO2 SLP114 T00560028 TSNO
cycle: 7

Station Type Date Time Source
KARR TAF UTC NOAA

Error!

Example: see airport list